Time;durP1;ratioP1;P1;durP2;ratioP2;P2;SDS_P1;SDS_P2;PMS_P1;PMS_P2;Temp;Humidity;BMP_temperature;BMP_pressure;BME280_temperature;BME280_humidity;BME280_pressure;Samples;Min_cycle;Max_cycle;Signal;HPM_P1;HPM_P2
2022/04/07 00:00:55;;;;;;;3.20;1.80;;;10.60;77.20;;;;;;5055826;28;20029;-67
2022/04/07 00:03:21;;;;;;;4.63;1.73;;;10.80;77.10;;;;;;5056209;28;20063;-67
2022/04/07 00:05:46;;;;;;;3.60;1.90;;;10.80;77.40;;;;;;5058061;28;20448;-66
2022/04/07 00:08:12;;;;;;;1.90;1.58;;;10.90;76.30;;;;;;5054989;28;20028;-67
2022/04/07 00:10:38;;;;;;;4.75;1.70;;;10.80;76.40;;;;;;5040092;28;20036;-67
2022/04/07 00:13:04;;;;;;;3.63;1.85;;;10.70;76.90;;;;;;5057727;28;20031;-67
2022/04/07 00:15:31;;;;;;;4.82;1.90;;;10.50;77.80;;;;;;5056205;28;20390;-67
2022/04/07 00:17:57;;;;;;;3.90;1.75;;;10.50;78.30;;;;;;5055231;28;20863;-66
2022/04/07 00:20:24;;;;;;;2.95;1.98;;;10.30;78.60;;;;;;5057200;28;20040;-66
2022/04/07 00:22:50;;;;;;;4.75;1.50;;;10.20;78.80;;;;;;5055943;28;20512;-67
2022/04/07 00:25:16;;;;;;;4.57;1.73;;;10.20;79.10;;;;;;5057007;28;20497;-66
2022/04/07 00:27:42;;;;;;;4.15;1.63;;;10.10;79.50;;;;;;5063809;28;20624;-66
2022/04/07 00:30:11;;;;;;;5.95;2.45;;;10.10;80.10;;;;;;5062156;28;20040;-67
2022/04/07 00:32:44;;;;;;;3.30;1.67;;;10.10;79.70;;;;;;5062500;28;20039;-66
2022/04/07 00:35:10;;;;;;;6.03;1.77;;;10.10;79.80;;;;;;5065012;28;20043;-67
2022/04/07 00:37:36;;;;;;;3.13;1.88;;;10.10;80.00;;;;;;5064783;28;20028;-67
2022/04/07 00:40:03;;;;;;;2.65;1.80;;;10.10;79.70;;;;;;5058340;28;20036;-67
2022/04/07 00:42:29;;;;;;;3.90;1.70;;;10.00;80.30;;;;;;5061571;28;20016;-67
2022/04/07 00:44:54;;;;;;;2.42;1.75;;;10.00;80.30;;;;;;5063614;28;20058;-67
2022/04/07 00:47:22;;;;;;;2.10;1.90;;;10.00;80.40;;;;;;5058184;28;20131;-66
2022/04/07 00:49:47;;;;;;;2.13;1.67;;;9.90;80.80;;;;;;5064463;28;20028;-67
2022/04/07 00:52:15;;;;;;;6.18;2.15;;;9.90;80.70;;;;;;5063473;28;20043;-67
2022/04/07 00:54:41;;;;;;;4.97;1.83;;;9.90;81.00;;;;;;5062155;28;20057;-67
2022/04/07 00:57:09;;;;;;;4.85;1.90;;;9.90;80.90;;;;;;5056882;28;20127;-67
2022/04/07 00:59:35;;;;;;;5.28;2.22;;;10.00;80.70;;;;;;5059079;28;20117;-66
2022/04/07 01:02:01;;;;;;;4.78;2.00;;;10.00;80.50;;;;;;5060543;28;20061;-67
2022/04/07 01:04:27;;;;;;;4.30;2.17;;;10.10;80.50;;;;;;5061530;28;20040;-67
2022/04/07 01:06:53;;;;;;;6.32;2.05;;;10.00;80.50;;;;;;5063623;28;20031;-66
2022/04/07 01:09:20;;;;;;;4.00;2.03;;;10.00;80.70;;;;;;5065276;28;20140;-67
2022/04/07 01:11:47;;;;;;;3.72;2.30;;;9.90;81.10;;;;;;5065496;28;20036;-67
2022/04/07 01:14:12;;;;;;;7.93;2.67;;;9.90;81.50;;;;;;5059743;28;20024;-66
2022/04/07 01:16:38;;;;;;;4.63;2.30;;;9.90;81.90;;;;;;5059614;28;20082;-67
2022/04/07 01:19:04;;;;;;;8.30;2.67;;;9.90;81.70;;;;;;5060692;28;20773;-66
2022/04/07 01:21:31;;;;;;;6.32;2.10;;;9.90;81.50;;;;;;5064493;28;20033;-66
2022/04/07 01:24:08;;;;;;;5.90;1.98;;;9.90;81.70;;;;;;5063163;28;20035;-66
2022/04/07 01:26:37;;;;;;;4.15;2.17;;;9.90;81.90;;;;;;5062046;28;20837;-66
2022/04/07 01:29:03;;;;;;;4.47;2.40;;;9.80;82.30;;;;;;5063788;28;20020;-67
2022/04/07 01:31:29;;;;;;;4.15;2.22;;;9.80;82.30;;;;;;5060198;28;20485;-66
2022/04/07 01:33:57;;;;;;;3.90;2.10;;;9.80;82.60;;;;;;5063239;28;20032;-67
2022/04/07 01:36:24;;;;;;;4.22;2.30;;;9.70;82.70;;;;;;5057063;28;20043;-66
2022/04/07 01:38:50;;;;;;;6.68;2.95;;;9.80;82.80;;;;;;5060395;28;20037;-66
2022/04/07 01:41:18;;;;;;;4.35;2.90;;;9.70;83.00;;;;;;5059611;28;20068;-67
2022/04/07 01:43:43;;;;;;;4.03;2.55;;;9.70;83.50;;;;;;5059248;28;20032;-67
2022/04/07 01:46:12;;;;;;;7.22;2.95;;;9.70;83.50;;;;;;5059091;28;20032;-66
2022/04/07 01:48:39;;;;;;;7.53;2.92;;;9.60;83.80;;;;;;5043341;28;20031;-67
2022/04/07 01:51:06;;;;;;;4.55;2.90;;;9.60;83.90;;;;;;5036549;28;20025;-67
2022/04/07 01:53:34;;;;;;;5.47;3.20;;;9.50;84.20;;;;;;5056314;28;20032;-66
2022/04/07 01:56:01;;;;;;;5.85;3.25;;;9.60;84.60;;;;;;5061191;28;20114;-66
2022/04/07 01:58:27;;;;;;;5.57;3.03;;;9.50;84.90;;;;;;5057078;28;20036;-67
2022/04/07 02:00:54;;;;;;;6.15;3.33;;;9.50;85.10;;;;;;5056543;28;20020;-66
2022/04/07 02:03:21;;;;;;;10.75;4.13;;;9.50;85.10;;;;;;5057849;28;20040;-66
2022/04/07 02:05:47;;;;;;;6.22;3.78;;;9.50;85.20;;;;;;5060513;28;20052;-66
2022/04/07 02:08:12;;;;;;;6.82;3.65;;;9.50;85.30;;;;;;5059441;28;20455;-66
2022/04/07 02:10:38;;;;;;;7.68;4.10;;;9.50;85.30;;;;;;5061022;28;20036;-67
2022/04/07 02:13:04;;;;;;;6.28;3.65;;;9.50;85.40;;;;;;5056833;28;20047;-67
2022/04/07 02:15:29;;;;;;;5.93;3.17;;;9.50;85.40;;;;;;5054543;28;20028;-66
2022/04/07 02:17:55;;;;;;;7.43;3.85;;;9.50;85.60;;;;;;5059205;28;20036;-66
2022/04/07 02:20:21;;;;;;;13.30;3.42;;;9.50;85.70;;;;;;5058280;28;20053;-66
2022/04/07 02:22:47;;;;;;;8.43;3.60;;;9.50;85.90;;;;;;5060256;28;20065;-66
2022/04/07 02:25:13;;;;;;;6.30;3.03;;;9.40;86.20;;;;;;5059333;28;20409;-67
2022/04/07 02:27:41;;;;;;;9.43;4.03;;;9.40;86.30;;;;;;5061438;28;20025;-66
2022/04/07 02:30:09;;;;;;;8.07;3.50;;;9.50;86.20;;;;;;5053207;28;20032;-66
2022/04/07 02:32:35;;;;;;;10.18;3.47;;;9.40;86.10;;;;;;5054549;28;20421;-66
2022/04/07 02:35:01;;;;;;;4.70;3.25;;;9.50;86.10;;;;;;5055645;28;20024;-66
2022/04/07 02:37:27;;;;;;;6.60;3.38;;;9.50;86.20;;;;;;5057291;28;20032;-66
2022/04/07 02:39:55;;;;;;;10.00;3.70;;;9.50;86.20;;;;;;5059232;28;20512;-66
2022/04/07 02:42:21;;;;;;;8.23;3.97;;;9.50;86.60;;;;;;5061523;28;20104;-66
2022/04/07 02:44:46;;;;;;;5.28;3.42;;;9.50;86.30;;;;;;5051514;28;20029;-66
2022/04/07 02:47:12;;;;;;;5.65;3.40;;;9.50;86.60;;;;;;5055115;28;20071;-67
2022/04/07 02:49:41;;;;;;;6.85;3.35;;;9.50;86.40;;;;;;5057942;28;20482;-66
2022/04/07 02:52:09;;;;;;;5.63;3.25;;;9.40;86.80;;;;;;5054905;28;20105;-66
2022/04/07 02:54:35;;;;;;;5.18;3.78;;;9.40;87.00;;;;;;5057801;28;20037;-66
2022/04/07 02:57:01;;;;;;;6.63;3.28;;;9.40;87.20;;;;;;5057759;28;20509;-66
2022/04/07 02:59:27;;;;;;;5.55;3.33;;;9.30;86.90;;;;;;5060493;28;20037;-66
2022/04/07 03:01:53;;;;;;;7.32;3.50;;;9.30;87.20;;;;;;5056882;28;20086;-66
2022/04/07 03:04:21;;;;;;;5.75;3.53;;;9.30;87.60;;;;;;5058071;28;20762;-66
2022/04/07 03:06:47;;;;;;;7.03;3.35;;;9.30;87.70;;;;;;5060206;28;20020;-66
2022/04/07 03:09:13;;;;;;;5.25;3.47;;;9.30;87.80;;;;;;5057488;28;20037;-66
2022/04/07 03:11:38;;;;;;;9.85;3.67;;;9.30;87.50;;;;;;5058604;28;20025;-66
2022/04/07 03:14:04;;;;;;;5.82;3.63;;;9.30;87.50;;;;;;5058852;28;20095;-66
2022/04/07 03:16:30;;;;;;;6.28;3.72;;;9.40;87.40;;;;;;5057552;28;20025;-66
2022/04/07 03:18:55;;;;;;;7.30;3.20;;;9.40;87.30;;;;;;5058783;28;20725;-66
2022/04/07 03:21:21;;;;;;;5.15;3.50;;;9.40;87.20;;;;;;5058383;28;20086;-66
2022/04/07 03:23:47;;;;;;;8.15;3.83;;;9.40;87.40;;;;;;5060506;28;20120;-66
2022/04/07 03:26:12;;;;;;;5.45;3.25;;;9.30;87.30;;;;;;5055800;28;20035;-66
2022/04/07 03:28:38;;;;;;;5.25;3.10;;;9.40;87.60;;;;;;5058787;28;20779;-66
2022/04/07 03:31:04;;;;;;;4.03;2.92;;;9.40;88.00;;;;;;5058671;28;20050;-66
2022/04/07 03:33:30;;;;;;;6.80;3.92;;;9.30;87.80;;;;;;5055826;28;20036;-66
2022/04/07 03:35:55;;;;;;;4.75;3.10;;;9.40;87.90;;;;;;5056109;28;20036;-66
2022/04/07 03:38:21;;;;;;;6.28;3.63;;;9.40;87.50;;;;;;5059507;28;21009;-66
2022/04/07 03:40:47;;;;;;;6.65;3.22;;;9.50;87.10;;;;;;5058267;28;20488;-66
2022/04/07 03:43:12;;;;;;;5.97;3.28;;;9.70;86.70;;;;;;5058137;28;20496;-66
2022/04/07 03:45:38;;;;;;;5.07;3.05;;;9.70;86.80;;;;;;5058494;28;20163;-66
2022/04/07 03:48:04;;;;;;;6.72;3.50;;;9.70;86.60;;;;;;5055352;28;20136;-66
2022/04/07 03:50:30;;;;;;;6.80;3.42;;;9.80;86.60;;;;;;5055181;28;20036;-66
2022/04/07 03:52:56;;;;;;;6.88;3.50;;;9.80;86.50;;;;;;5057402;28;20032;-66
2022/04/07 03:55:22;;;;;;;6.50;3.22;;;9.80;86.50;;;;;;5057525;28;20135;-66
2022/04/07 03:57:48;;;;;;;5.15;2.95;;;9.80;86.70;;;;;;5059442;28;20555;-66
2022/04/07 04:00:16;;;;;;;12.48;2.92;;;9.90;86.20;;;;;;5041648;28;20040;-65
2022/04/07 04:02:42;;;;;;;7.03;2.88;;;9.90;86.30;;;;;;5059457;28;20388;-66
2022/04/07 04:05:08;;;;;;;8.07;3.22;;;9.90;86.40;;;;;;5057536;28;20124;-66
2022/04/07 04:07:34;;;;;;;5.07;3.40;;;9.90;86.40;;;;;;5040441;28;20485;-66
2022/04/07 04:10:01;;;;;;;5.78;3.20;;;9.90;86.00;;;;;;5057858;28;20095;-66
2022/04/07 04:12:26;;;;;;;4.45;3.10;;;10.00;85.90;;;;;;5058304;28;20074;-66
2022/04/07 04:14:52;;;;;;;6.78;3.67;;;10.10;85.50;;;;;;5060696;28;20056;-66
2022/04/07 04:17:18;;;;;;;6.97;3.60;;;10.00;85.40;;;;;;5058863;28;20634;-66
2022/04/07 04:19:44;;;;;;;4.70;3.00;;;10.00;85.60;;;;;;5055646;28;20032;-66
2022/04/07 04:22:10;;;;;;;6.47;2.70;;;10.00;85.70;;;;;;5057799;28;20540;-66
2022/04/07 04:24:35;;;;;;;7.03;3.15;;;10.10;85.40;;;;;;5055447;28;20039;-66
2022/04/07 04:27:01;;;;;;;4.35;2.88;;;10.10;85.00;;;;;;5056083;28;20439;-66
2022/04/07 04:29:27;;;;;;;5.60;2.92;;;10.10;84.80;;;;;;5056568;28;20025;-66
2022/04/07 04:31:53;;;;;;;7.20;3.33;;;10.10;85.30;;;;;;5059055;28;20124;-66
2022/04/07 04:34:18;;;;;;;4.22;2.80;;;10.00;85.10;;;;;;5058742;28;20020;-66
2022/04/07 04:36:44;;;;;;;5.25;2.53;;;10.00;85.10;;;;;;5055028;28;20548;-66
2022/04/07 04:39:10;;;;;;;4.45;2.53;;;10.00;85.30;;;;;;5058429;28;20501;-66
2022/04/07 04:41:35;;;;;;;7.38;2.65;;;10.10;84.80;;;;;;5055826;28;20843;-66
2022/04/07 04:44:02;;;;;;;4.20;2.78;;;10.20;84.50;;;;;;5056110;28;20025;-66
2022/04/07 04:46:28;;;;;;;3.92;2.60;;;10.20;84.50;;;;;;5055934;28;20033;-66
2022/04/07 04:48:54;;;;;;;3.92;2.53;;;10.20;84.40;;;;;;5058465;28;20105;-66
2022/04/07 04:51:20;;;;;;;4.82;2.30;;;10.20;84.20;;;;;;5059062;28;20028;-66
2022/04/07 04:53:45;;;;;;;6.55;2.58;;;10.30;84.30;;;;;;5054916;28;20032;-66
2022/04/07 04:56:12;;;;;;;2.75;2.17;;;10.30;84.10;;;;;;5055238;28;20588;-67
2022/04/07 04:58:37;;;;;;;4.60;2.72;;;10.30;83.80;;;;;;5055358;28;20028;-66
2022/04/07 05:01:03;;;;;;;5.00;2.83;;;10.40;83.70;;;;;;5055050;28;20032;-66
2022/04/07 05:03:29;;;;;;;4.32;3.00;;;10.30;83.90;;;;;;5056973;28;20028;-66
2022/04/07 05:05:55;;;;;;;6.72;2.53;;;10.30;84.00;;;;;;5056918;28;20132;-66
2022/04/07 05:08:20;;;;;;;3.15;1.80;;;10.40;83.80;;;;;;5055875;28;20021;-66
2022/04/07 05:10:46;;;;;;;2.38;2.03;;;10.50;83.70;;;;;;5057239;28;20044;-67
2022/04/07 05:13:12;;;;;;;3.88;2.10;;;10.50;83.50;;;;;;5061110;28;20106;-66
2022/04/07 05:15:39;;;;;;;2.67;1.83;;;10.50;83.60;;;;;;5062808;28;20370;-66
2022/04/07 05:18:05;;;;;;;3.65;2.35;;;10.40;83.70;;;;;;5061002;28;20024;-67
2022/04/07 05:20:31;;;;;;;4.75;2.03;;;10.40;83.90;;;;;;5059701;28;20173;-67
2022/04/07 05:22:57;;;;;;;5.82;2.40;;;10.50;83.50;;;;;;5058453;28;20581;-67
2022/04/07 05:25:23;;;;;;;4.03;2.20;;;10.50;83.50;;;;;;5058259;28;20093;-67
2022/04/07 05:27:49;;;;;;;3.58;1.73;;;10.60;83.40;;;;;;5061501;28;20028;-67
2022/04/07 05:30:17;;;;;;;4.32;2.15;;;10.70;83.30;;;;;;5059987;28;20062;-67
2022/04/07 05:32:44;;;;;;;4.13;2.58;;;10.80;82.50;;;;;;5061489;28;20032;-67
2022/04/07 05:35:13;;;;;;;4.10;2.28;;;10.80;82.40;;;;;;5061561;28;20055;-67
2022/04/07 05:37:39;;;;;;;3.35;2.22;;;10.90;82.30;;;;;;5061989;28;20024;-67
2022/04/07 05:40:08;;;;;;;3.08;2.00;;;10.90;82.00;;;;;;5057777;28;20066;-67
2022/04/07 05:42:34;;;;;;;4.30;2.45;;;11.10;81.60;;;;;;5059270;28;20018;-67
2022/04/07 05:45:00;;;;;;;3.70;1.90;;;11.10;81.30;;;;;;5058139;28;20597;-68
2022/04/07 05:47:25;;;;;;;3.22;1.80;;;11.20;81.10;;;;;;5062085;28;20037;-68
2022/04/07 05:49:56;;;;;;;3.17;2.03;;;11.30;80.70;;;;;;5060948;28;20095;-67
2022/04/07 05:52:22;;;;;;;2.20;1.85;;;11.30;80.80;;;;;;5062180;28;20071;-67
2022/04/07 05:54:48;;;;;;;6.53;2.70;;;11.30;80.80;;;;;;5058506;28;20456;-67
2022/04/07 05:57:14;;;;;;;4.75;2.78;;;11.40;80.60;;;;;;5061498;28;20173;-68
2022/04/07 05:59:40;;;;;;;5.18;2.88;;;11.40;80.40;;;;;;5062054;28;20532;-67
2022/04/07 06:02:06;;;;;;;11.90;6.47;;;11.50;80.30;;;;;;5057837;28;20739;-68
2022/04/07 06:04:32;;;;;;;7.43;2.53;;;11.60;80.10;;;;;;5059870;28;20021;-67
2022/04/07 06:06:58;;;;;;;3.65;1.90;;;11.50;79.70;;;;;;5059048;28;20086;-67
2022/04/07 06:09:23;;;;;;;3.17;2.10;;;11.60;79.50;;;;;;5058316;28;20505;-67
2022/04/07 06:11:49;;;;;;;1.65;1.30;;;11.60;79.20;;;;;;5058462;28;20036;-67
2022/04/07 06:14:15;;;;;;;2.72;1.65;;;11.60;78.90;;;;;;5058399;28;20025;-67
2022/04/07 06:16:40;;;;;;;3.17;1.70;;;11.70;79.30;;;;;;5058650;28;20031;-67
2022/04/07 06:19:06;;;;;;;2.15;1.80;;;11.70;79.40;;;;;;5058568;28;20062;-67
2022/04/07 06:21:33;;;;;;;1.70;1.52;;;11.80;78.60;;;;;;5060076;28;20060;-68
2022/04/07 06:23:59;;;;;;;3.25;1.73;;;11.80;78.50;;;;;;5059270;28;20032;-67
2022/04/07 06:26:26;;;;;;;3.60;2.85;;;11.70;79.60;;;;;;5057324;28;20044;-67
2022/04/07 06:28:52;;;;;;;4.00;2.90;;;11.70;79.80;;;;;;5060800;28;20070;-67
2022/04/07 06:31:18;;;;;;;3.88;2.42;;;11.60;80.00;;;;;;5059447;28;20112;-67
2022/04/07 06:33:44;;;;;;;5.25;2.30;;;11.80;79.40;;;;;;5059671;28;20715;-67
2022/04/07 06:36:10;;;;;;;6.47;1.67;;;12.10;78.90;;;;;;5058080;28;20093;-68
2022/04/07 06:38:35;;;;;;;4.68;2.17;;;12.20;77.20;;;;;;5061686;28;20040;-67
2022/04/07 06:41:02;;;;;;;6.28;3.63;;;12.20;77.20;;;;;;5061480;28;20427;-67
2022/04/07 06:43:28;;;;;;;3.13;1.90;;;12.40;76.80;;;;;;5058891;28;20078;-67
2022/04/07 06:45:53;;;;;;;3.22;1.80;;;12.40;76.70;;;;;;5059816;28;20472;-67
2022/04/07 06:48:19;;;;;;;3.45;1.58;;;12.50;75.90;;;;;;5059755;28;20056;-67
2022/04/07 06:50:45;;;;;;;3.70;2.25;;;12.60;75.20;;;;;;5060480;28;20129;-67
2022/04/07 06:53:12;;;;;;;2.20;1.77;;;12.60;75.10;;;;;;5058012;28;20130;-67
2022/04/07 06:55:38;;;;;;;4.65;2.00;;;12.80;74.40;;;;;;5057950;28;20032;-67
2022/04/07 06:58:06;;;;;;;3.78;1.80;;;12.80;74.20;;;;;;5055325;28;20036;-67
2022/04/07 07:00:40;;;;;;;3.35;2.08;;;12.90;73.70;;;;;;5057317;28;20033;-67
2022/04/07 07:03:05;;;;;;;3.92;2.10;;;13.10;73.90;;;;;;5057170;28;20085;-67
2022/04/07 07:05:33;;;;;;;3.75;2.15;;;13.10;73.00;;;;;;5060057;28;20473;-67
2022/04/07 07:08:14;;;;;;;3.40;2.15;;;13.40;72.70;;;;;;5059667;28;20040;-67
2022/04/07 07:10:40;;;;;;;2.88;1.77;;;14.30;68.60;;;;;;5040546;28;20039;-67
2022/04/07 07:13:06;;;;;;;2.95;1.80;;;16.10;63.80;;;;;;5053628;28;20043;-66
2022/04/07 07:15:32;;;;;;;2.33;1.65;;;18.10;56.90;;;;;;5060567;28;20400;-67
2022/04/07 07:17:58;;;;;;;6.70;1.83;;;18.60;55.00;;;;;;5057283;28;20033;-67
2022/04/07 07:20:23;;;;;;;3.90;1.65;;;18.90;52.70;;;;;;5059342;28;20035;-67
2022/04/07 07:22:49;;;;;;;2.35;1.35;;;18.10;53.30;;;;;;5059956;28;20472;-67
2022/04/07 07:25:15;;;;;;;3.50;1.83;;;17.10;54.80;;;;;;5058835;28;20036;-67
2022/04/07 07:27:46;;;;;;;2.22;1.77;;;16.10;58.60;;;;;;5057209;28;20021;-67
2022/04/07 07:30:15;;;;;;;6.68;1.42;;;15.30;60.20;;;;;;5059073;28;20024;-68
2022/04/07 07:32:42;;;;;;;1.67;0.90;;;14.80;61.70;;;;;;5058384;28;20443;-67
2022/04/07 07:35:09;;;;;;;3.33;1.00;;;14.90;62.40;;;;;;5057268;28;20043;-69
2022/04/07 07:37:36;;;;;;;1.05;0.80;;;14.90;61.40;;;;;;5056849;28;20046;-67
2022/04/07 07:40:11;;;;;;;1.67;0.88;;;15.00;62.00;;;;;;5057218;28;20060;-71
2022/04/07 07:42:36;;;;;;;1.90;0.75;;;15.10;60.90;;;;;;5058326;28;20029;-70
2022/04/07 07:45:06;;;;;;;0.77;0.60;;;16.20;59.00;;;;;;5059361;28;20039;-70
2022/04/07 07:47:33;;;;;;;2.72;0.95;;;18.10;54.50;;;;;;5059911;28;20029;-71
2022/04/07 07:49:59;;;;;;;1.45;1.13;;;18.90;51.30;;;;;;5058451;28;20562;-71
2022/04/07 07:52:25;;;;;;;2.72;0.80;;;19.10;50.70;;;;;;5055593;28;20037;-70
2022/04/07 07:54:50;;;;;;;1.25;0.90;;;19.20;51.10;;;;;;5058413;28;20031;-70
2022/04/07 07:57:18;;;;;;;1.10;0.80;;;18.70;51.80;;;;;;5059706;28;20028;-70
2022/04/07 07:59:44;;;;;;;1.10;1.00;;;19.90;49.50;;;;;;5058403;28;20081;-71
2022/04/07 08:02:09;;;;;;;3.65;1.10;;;21.50;46.10;;;;;;5037220;28;20583;-71
2022/04/07 08:04:35;;;;;;;1.17;0.90;;;20.50;47.20;;;;;;5055970;28;20028;-70
2022/04/07 08:07:01;;;;;;;2.17;0.80;;;20.70;46.30;;;;;;5059889;28;20024;-71
2022/04/07 08:09:26;;;;;;;2.55;1.38;;;19.90;48.70;;;;;;5056749;28;20484;-70
2022/04/07 08:11:52;;;;;;;1.27;0.70;;;19.60;48.40;;;;;;5057114;28;20020;-71
2022/04/07 08:14:18;;;;;;;1.90;0.88;;;19.20;49.40;;;;;;5055208;28;20036;-70
2022/04/07 08:16:43;;;;;;;2.28;0.73;;;18.10;51.90;;;;;;5057856;28;20799;-71
2022/04/07 08:19:09;;;;;;;1.45;0.85;;;17.00;54.90;;;;;;5039965;28;20024;-68
2022/04/07 08:21:36;;;;;;;3.10;1.42;;;16.50;57.50;;;;;;5058327;28;20029;-67
2022/04/07 08:24:02;;;;;;;1.30;0.98;;;17.90;54.40;;;;;;5057963;28;20032;-68
2022/04/07 08:26:28;;;;;;;1.70;0.70;;;17.90;53.30;;;;;;5061161;28;20917;-67
2022/04/07 08:28:53;;;;;;;1.70;0.80;;;17.10;55.60;;;;;;5059003;28;20095;-67
2022/04/07 08:31:19;;;;;;;4.13;1.50;;;16.40;57.10;;;;;;5057525;28;20036;-67
2022/04/07 08:33:45;;;;;;;2.08;1.35;;;15.90;59.80;;;;;;5056086;28;20094;-64
2022/04/07 08:36:11;;;;;;;3.65;1.92;;;15.40;60.50;;;;;;5055396;28;20154;-67
2022/04/07 08:38:36;;;;;;;2.72;1.58;;;15.20;62.00;;;;;;5057114;28;20036;-67
2022/04/07 08:41:08;;;;;;;1.48;0.95;;;15.10;62.30;;;;;;5057758;28;20038;-67
2022/04/07 08:43:38;;;;;;;7.38;3.85;;;15.30;61.90;;;;;;5056119;28;20726;-67
2022/04/07 08:46:08;;;;;;;2.85;1.65;;;16.30;59.20;;;;;;5058498;28;20089;-66
2022/04/07 08:48:37;;;;;;;6.35;2.92;;;16.30;58.50;;;;;;5058914;28;20028;-67
2022/04/07 08:51:04;;;;;;;1.85;0.90;;;16.60;58.20;;;;;;5059402;28;20028;-67
2022/04/07 08:53:31;;;;;;;9.13;4.90;;;16.80;58.70;;;;;;5058403;28;21006;-67
2022/04/07 08:55:59;;;;;;;4.10;2.10;;;17.60;56.70;;;;;;5059782;28;20059;-66
2022/04/07 08:58:25;;;;;;;1.42;0.80;;;17.20;55.90;;;;;;5046731;28;20028;-67
2022/04/07 09:00:51;;;;;;;4.75;2.53;;;16.50;57.70;;;;;;5044613;28;20097;-67
2022/04/07 09:03:16;;;;;;;1.52;0.40;;;16.40;58.60;;;;;;5060860;28;20021;-65
2022/04/07 09:05:59;;;;;;;5.40;1.75;;;16.40;58.40;;;;;;5063664;28;20032;-65
2022/04/07 09:08:37;;;;;;;1.85;1.20;;;15.90;59.40;;;;;;5062044;28;20559;-65
2022/04/07 09:11:05;;;;;;;5.90;3.80;;;15.70;61.20;;;;;;5060364;28;20036;-66
2022/04/07 09:13:39;;;;;;;1.40;1.02;;;15.60;61.60;;;;;;5062081;28;20036;-65
2022/04/07 09:16:13;;;;;;;3.03;2.05;;;15.70;60.80;;;;;;5059017;28;20666;-64
2022/04/07 09:18:45;;;;;;;2.15;1.30;;;17.60;56.50;;;;;;5059787;28;20789;-65
2022/04/07 09:21:24;;;;;;;5.10;3.60;;;18.10;54.20;;;;;;5060612;28;20411;-66
2022/04/07 09:23:54;;;;;;;0.63;0.63;;;17.50;54.90;;;;;;5058971;28;20044;-65
2022/04/07 09:26:20;;;;;;;0.82;0.82;;;16.90;56.10;;;;;;5059622;28;20025;-65
2022/04/07 09:28:46;;;;;;;2.72;1.38;;;16.40;58.00;;;;;;5060605;28;20459;-64
2022/04/07 09:31:16;;;;;;;2.25;1.33;;;15.60;60.60;;;;;;5061105;28;20098;-65
2022/04/07 09:33:42;;;;;;;2.28;1.52;;;15.40;60.70;;;;;;5061272;28;20056;-64
2022/04/07 09:36:19;;;;;;;3.28;2.00;;;15.20;61.10;;;;;;5057982;28;20143;-65
2022/04/07 09:38:50;;;;;;;8.40;1.42;;;15.20;61.40;;;;;;5060304;28;20032;-66
2022/04/07 09:41:19;;;;;;;6.40;3.88;;;15.30;61.60;;;;;;5061068;28;20041;-66
2022/04/07 09:43:45;;;;;;;1.70;1.25;;;15.10;62.40;;;;;;5059187;28;20055;-66
2022/04/07 09:46:13;;;;;;;6.50;3.55;;;14.90;63.70;;;;;;5058734;28;20111;-66
2022/04/07 09:48:39;;;;;;;9.57;4.50;;;15.00;62.70;;;;;;5062908;28;20052;-66
2022/04/07 09:51:07;;;;;;;3.47;1.95;;;14.80;62.00;;;;;;5058868;28;20070;-66
2022/04/07 09:53:42;;;;;;;8.02;3.97;;;15.00;62.80;;;;;;5060976;28;20404;-66
2022/04/07 09:56:07;;;;;;;6.40;4.55;;;15.70;61.60;;;;;;5060374;28;20159;-66
2022/04/07 09:58:34;;;;;;;6.45;2.22;;;16.20;58.20;;;;;;5060532;28;20028;-66
2022/04/07 10:01:02;;;;;;;1.40;0.70;;;16.90;57.10;;;;;;5059635;28;20150;-66
2022/04/07 10:03:30;;;;;;;2.92;2.42;;;17.20;55.90;;;;;;5054874;28;20098;-66
2022/04/07 10:06:00;;;;;;;3.45;1.63;;;16.60;56.80;;;;;;5059658;28;20052;-65
2022/04/07 10:08:26;;;;;;;2.17;1.33;;;15.90;58.10;;;;;;5060489;28;20040;-66
2022/04/07 10:10:54;;;;;;;3.45;1.02;;;15.60;59.00;;;;;;5058367;28;20115;-66
2022/04/07 10:13:20;;;;;;;2.30;2.10;;;15.30;60.10;;;;;;5058934;28;20032;-66
2022/04/07 10:15:50;;;;;;;7.68;4.68;;;15.20;60.70;;;;;;5060404;28;20032;-66
2022/04/07 10:18:29;;;;;;;3.13;2.35;;;15.10;61.60;;;;;;5061615;28;20118;-64
2022/04/07 10:20:58;;;;;;;0.47;0.47;;;15.10;61.80;;;;;;5058639;28;20025;-66
2022/04/07 10:23:34;;;;;;;1.52;0.88;;;15.00;61.80;;;;;;5056432;28;20033;-66
2022/04/07 10:26:02;;;;;;;1.35;1.25;;;15.20;61.10;;;;;;5056642;28;20590;-66
2022/04/07 10:28:28;;;;;;;0.75;0.50;;;14.90;61.60;;;;;;5060944;28;20052;-66
2022/04/07 10:30:54;;;;;;;0.93;0.70;;;14.80;61.80;;;;;;5061477;28;20071;-66
2022/04/07 10:33:40;;;;;;;0.70;0.52;;;14.90;62.60;;;;;;5061252;28;20036;-66
2022/04/07 10:36:13;;;;;;;2.92;1.90;;;14.90;62.60;;;;;;5060474;28;20040;-66
2022/04/07 10:38:41;;;;;;;0.75;0.40;;;14.80;63.80;;;;;;5061688;28;20090;-66
2022/04/07 10:41:08;;;;;;;1.77;0.55;;;14.60;65.90;;;;;;5056237;28;20518;-66
2022/04/07 10:43:40;;;;;;;1.10;1.00;;;14.40;67.50;;;;;;5058606;28;20036;-66
2022/04/07 10:46:18;;;;;;;3.10;0.50;;;14.00;68.60;;;;;;5059009;28;20069;-66
2022/04/07 10:48:49;;;;;;;1.35;0.50;;;13.80;70.20;;;;;;5059862;28;20102;-66
2022/04/07 10:51:15;;;;;;;0.57;0.52;;;13.90;70.20;;;;;;5060683;28;20036;-66
2022/04/07 10:53:52;;;;;;;0.30;0.30;;;13.80;69.50;;;;;;5059048;28;20035;-66
2022/04/07 10:56:32;;;;;;;1.15;0.50;;;13.90;68.70;;;;;;5060311;28;20032;-66
2022/04/07 10:59:17;;;;;;;0.50;0.47;;;13.80;69.30;;;;;;5057313;28;20807;-68
2022/04/07 11:01:43;;;;;;;4.03;0.40;;;13.90;69.50;;;;;;5058991;28;20370;-66
2022/04/07 11:07:02;;;;;;;3.08;0.50;;;14.00;67.20;;;;;;5060943;28;20039;-67
2022/04/07 11:09:44;;;;;;;3.00;0.80;;;14.00;67.50;;;;;;5057221;28;20426;-68
2022/04/07 11:12:17;;;;;;;4.80;0.70;;;14.20;68.10;;;;;;5056469;28;20139;-68
2022/04/07 11:14:47;;;;;;;1.77;0.90;;;14.30;66.20;;;;;;5055789;28;20071;-65
2022/04/07 11:17:46;;;;;;;3.35;0.30;;;14.30;66.20;;;;;;5059329;28;20464;-66
2022/04/07 11:20:16;;;;;;;0.52;0.50;;;14.30;65.50;;;;;;5052422;28;20044;-66
2022/04/07 11:22:49;;;;;;;0.38;0.32;;;14.30;65.50;;;;;;5059516;28;20098;-66
2022/04/07 11:25:30;;;;;;;3.72;0.30;;;14.30;64.80;;;;;;5055787;28;20098;-66
2022/04/07 11:28:14;;;;;;;0.30;0.30;;;14.50;65.20;;;;;;5056588;28;20029;-66
2022/04/07 11:30:49;;;;;;;0.65;0.50;;;14.50;65.20;;;;;;5057387;28;20056;-67
2022/04/07 11:36:10;;;;;;;0.98;0.60;;;14.60;65.20;;;;;;5058611;28;20044;-66
2022/04/07 11:38:42;;;;;;;2.13;0.95;;;14.50;68.00;;;;;;5006114;28;20048;-66
2022/04/07 11:41:09;;;;;;;0.60;0.43;;;14.30;68.80;;;;;;5056615;28;20047;-66
2022/04/07 11:43:38;;;;;;;3.75;1.20;;;14.30;67.90;;;;;;5056329;28;20063;-66
2022/04/07 11:46:04;;;;;;;0.30;0.20;;;14.20;69.30;;;;;;5056233;28;20028;-66
2022/04/07 11:48:32;;;;;;;3.55;1.70;;;14.20;68.70;;;;;;5059217;28;20078;-66
2022/04/07 11:51:01;;;;;;;1.55;0.32;;;14.20;69.80;;;;;;5058209;28;20060;-66
2022/04/07 11:53:28;;;;;;;0.45;0.20;;;14.10;70.00;;;;;;5059069;28;20064;-66
2022/04/07 11:55:54;;;;;;;1.02;0.55;;;14.00;71.40;;;;;;5056663;28;20572;-66
2022/04/07 11:58:20;;;;;;;1.70;0.25;;;13.70;72.00;;;;;;5056605;28;20040;-69
2022/04/07 12:00:46;;;;;;;2.40;0.70;;;13.60;73.50;;;;;;5057014;28;20072;-66
2022/04/07 12:03:12;;;;;;;1.38;0.50;;;13.40;73.80;;;;;;5055655;28;20098;-66
2022/04/07 12:05:43;;;;;;;1.48;0.30;;;13.40;74.40;;;;;;5057619;28;20032;-66
2022/04/07 12:08:15;;;;;;;2.15;0.60;;;13.50;75.20;;;;;;5058167;28;20028;-67
2022/04/07 12:10:45;;;;;;;0.63;0.28;;;13.50;74.30;;;;;;5055791;28;20037;-66
2022/04/07 12:13:12;;;;;;;0.40;0.30;;;13.50;77.20;;;;;;5055554;28;20032;-66
2022/04/07 12:15:38;;;;;;;0.50;0.40;;;13.40;78.20;;;;;;5057291;28;20020;-66
2022/04/07 12:18:08;;;;;;;0.50;0.40;;;13.20;79.70;;;;;;5057285;28;20028;-67
2022/04/07 12:20:36;;;;;;;3.13;0.75;;;13.00;80.40;;;;;;5059416;28;20340;-66
2022/04/07 12:23:14;;;;;;;0.32;0.30;;;13.00;79.20;;;;;;5057812;28;20044;-66
2022/04/07 12:25:41;;;;;;;0.90;0.50;;;13.20;79.30;;;;;;5057370;28;20046;-66
2022/04/07 12:28:13;;;;;;;1.08;0.47;;;13.30;79.90;;;;;;5058551;28;20040;-66
2022/04/07 12:30:46;;;;;;;3.70;0.50;;;13.20;80.30;;;;;;5056810;28;20075;-67
2022/04/07 12:33:31;;;;;;;1.05;0.45;;;13.40;81.10;;;;;;5057150;28;20668;-66
2022/04/07 12:35:57;;;;;;;0.30;0.30;;;13.40;80.50;;;;;;5054525;28;20032;-66
2022/04/07 12:38:22;;;;;;;1.38;0.22;;;13.20;81.20;;;;;;5057458;28;20048;-67
2022/04/07 12:40:49;;;;;;;2.78;0.50;;;13.10;82.60;;;;;;5056727;28;20039;-67
2022/04/07 12:43:15;;;;;;;0.85;0.28;;;13.10;82.60;;;;;;5058439;28;20044;-67
2022/04/07 12:45:59;;;;;;;3.22;0.30;;;13.30;80.80;;;;;;5056754;28;20033;-67
2022/04/07 12:48:27;;;;;;;0.43;0.30;;;13.60;79.80;;;;;;5057116;28;20240;-67
2022/04/07 12:50:53;;;;;;;1.65;0.30;;;14.10;77.90;;;;;;5053506;28;20070;-67
2022/04/07 12:53:34;;;;;;;1.30;0.35;;;14.60;76.60;;;;;;5054077;28;20050;-67
2022/04/07 12:56:16;;;;;;;1.00;0.20;;;14.80;75.80;;;;;;5055296;28;20106;-67